createdAt,value
2023-04-12T00:01:08.565Z,1.20
2023-04-12T00:03:36.357Z,1.30
2023-04-12T00:06:07.217Z,0.90
2023-04-12T00:08:35.427Z,1.20
2023-04-12T00:11:03.990Z,1.30
2023-04-12T00:13:31.857Z,1.27
2023-04-12T00:15:59.344Z,1.00
2023-04-12T00:18:27.443Z,1.17
2023-04-12T00:20:56.114Z,1.20
2023-04-12T00:23:25.099Z,1.00
2023-04-12T00:25:52.774Z,1.30
2023-04-12T00:28:20.304Z,1.10
2023-04-12T00:30:47.894Z,1.53
2023-04-12T00:33:15.361Z,1.37
2023-04-12T00:35:42.934Z,1.30
2023-04-12T00:38:10.970Z,1.20
2023-04-12T00:40:43.765Z,1.80
2023-04-12T00:43:15.242Z,1.30
2023-04-12T00:45:43.068Z,1.50
2023-04-12T00:48:10.579Z,1.20
2023-04-12T00:50:38.049Z,1.50
2023-04-12T00:53:05.522Z,1.30
2023-04-12T00:55:32.970Z,1.50
2023-04-12T00:58:01.748Z,1.03
2023-04-12T01:00:29.261Z,1.30
2023-04-12T01:02:56.994Z,1.47
2023-04-12T01:05:25.033Z,1.10
2023-04-12T01:08:00.714Z,1.20
2023-04-12T01:10:34.824Z,1.20
2023-04-12T01:13:09.836Z,1.57
2023-04-12T01:15:40.819Z,1.47
2023-04-12T01:18:11.034Z,1.60
2023-04-12T01:20:45.204Z,1.40
2023-04-12T01:23:18.891Z,1.97
2023-04-12T01:26:11.138Z,1.43
2023-04-12T01:28:43.729Z,1.50
2023-04-12T01:31:12.834Z,1.70
2023-04-12T01:33:42.036Z,1.47
2023-04-12T01:36:12.934Z,1.67
2023-04-12T01:38:41.540Z,1.40
2023-04-12T01:41:09.583Z,1.67
2023-04-12T01:43:42.765Z,1.40
2023-04-12T01:46:11.821Z,1.57
2023-04-12T01:48:39.867Z,1.50
2023-04-12T01:51:10.331Z,1.67
2023-04-12T01:53:44.818Z,1.67
2023-04-12T01:56:12.777Z,1.27
2023-04-12T01:58:42.100Z,1.10
2023-04-12T02:01:10.622Z,2.10
2023-04-12T02:03:38.704Z,1.90
2023-04-12T02:06:07.029Z,1.40
2023-04-12T02:08:34.514Z,2.47
2023-04-12T02:11:02.106Z,1.97
2023-04-12T02:13:29.545Z,2.80
2023-04-12T02:15:59.144Z,1.80
2023-04-12T02:18:27.855Z,1.37
2023-04-12T02:20:55.533Z,1.70
2023-04-12T02:23:23.027Z,1.80
2023-04-12T02:25:50.538Z,1.63
2023-04-12T02:28:18.008Z,1.60
2023-04-12T02:30:45.536Z,1.37
2023-04-12T02:33:15.569Z,2.33
2023-04-12T02:35:43.110Z,1.80
2023-04-12T02:38:10.640Z,1.23
2023-04-12T02:40:39.614Z,2.00
2023-04-12T02:43:07.339Z,1.93
2023-04-12T02:45:34.764Z,1.97
2023-04-12T02:48:02.296Z,2.10
2023-04-12T02:50:31.297Z,1.80
2023-04-12T02:52:58.752Z,1.90
2023-04-12T02:55:27.070Z,1.60
2023-04-12T02:57:55.549Z,1.93
2023-04-12T03:00:23.257Z,2.57
2023-04-12T03:02:51.384Z,2.10
2023-04-12T03:05:19.366Z,2.10
2023-04-12T03:07:48.944Z,2.10
2023-04-12T03:10:16.765Z,2.57
2023-04-12T03:12:44.220Z,2.97
2023-04-12T03:15:12.278Z,2.23
2023-04-12T03:17:39.772Z,2.50
2023-04-12T03:20:09.660Z,2.90
2023-04-12T03:22:37.506Z,2.73
2023-04-12T03:25:07.032Z,2.63
2023-04-12T03:27:34.467Z,2.63
2023-04-12T03:30:01.925Z,2.13
2023-04-12T03:32:29.369Z,3.10
2023-04-12T03:34:57.809Z,2.70
2023-04-12T03:37:25.470Z,2.30
2023-04-12T03:39:52.903Z,2.33
2023-04-12T03:42:32.407Z,2.60
2023-04-12T03:45:01.193Z,2.37
2023-04-12T03:47:28.917Z,2.83
2023-04-12T03:52:27.123Z,3.13
2023-04-12T03:54:54.602Z,2.23
2023-04-12T03:57:23.387Z,2.70
2023-04-12T03:59:51.934Z,2.70
2023-04-12T04:02:19.535Z,2.93
2023-04-12T04:04:47.126Z,2.80
2023-04-12T04:07:14.605Z,2.23
2023-04-12T04:09:42.061Z,2.60
2023-04-12T04:12:09.750Z,3.03
2023-04-12T04:14:38.549Z,2.70
2023-04-12T04:17:06.016Z,3.13
2023-04-12T04:19:33.474Z,3.10
2023-04-12T04:22:02.194Z,2.50
2023-04-12T04:24:29.874Z,2.60
2023-04-12T04:26:58.794Z,2.83
2023-04-12T04:29:27.661Z,3.40
2023-04-12T04:31:57.433Z,2.90
2023-04-12T04:34:25.297Z,4.50
2023-04-12T04:36:53.073Z,3.10
2023-04-12T04:39:20.573Z,2.80
2023-04-12T04:41:55.091Z,2.37
2023-04-12T04:44:22.686Z,3.40
2023-04-12T04:46:50.308Z,3.03
2023-04-12T04:49:19.090Z,3.17
2023-04-12T04:51:46.948Z,3.33
2023-04-12T04:54:14.799Z,2.63
2023-04-12T04:56:42.250Z,2.43
2023-04-12T04:59:09.720Z,2.63
2023-04-12T05:01:37.412Z,2.80
2023-04-12T05:04:05.096Z,3.47
2023-04-12T05:06:34.026Z,2.87
2023-04-12T05:09:01.637Z,3.33
2023-04-12T05:11:29.115Z,2.27
2023-04-12T05:13:56.547Z,2.57
2023-04-12T05:16:24.119Z,2.23
2023-04-12T05:18:51.590Z,1.80
2023-04-12T05:21:19.094Z,1.57
2023-04-12T05:23:48.697Z,2.00
2023-04-12T05:26:16.143Z,1.60
2023-04-12T05:28:43.630Z,2.10
2023-04-12T05:31:11.714Z,2.20
2023-04-12T05:33:39.230Z,2.57
2023-04-12T05:36:07.435Z,1.67
2023-04-12T05:38:34.931Z,1.60
2023-04-12T05:41:04.596Z,1.30
2023-04-12T05:43:32.938Z,1.70
2023-04-12T05:46:00.562Z,1.43
2023-04-12T05:48:28.078Z,1.70
2023-04-12T05:50:56.013Z,2.13
2023-04-12T05:53:23.844Z,1.30
2023-04-12T05:55:51.528Z,1.10
2023-04-12T05:58:20.383Z,1.57
2023-04-12T06:00:49.498Z,1.77
2023-04-12T06:03:17.214Z,1.37
2023-04-12T06:05:44.873Z,1.80
2023-04-12T06:08:14.531Z,1.50
2023-04-12T06:10:42.376Z,1.10
2023-04-12T06:13:09.852Z,1.47
2023-04-12T06:15:38.685Z,1.33
2023-04-12T06:18:08.104Z,1.10
2023-04-12T06:20:35.748Z,1.13
2023-04-12T06:23:03.266Z,1.10
2023-04-12T06:25:30.839Z,1.20
2023-04-12T06:27:58.341Z,1.20
2023-04-12T06:30:25.901Z,1.43
2023-04-12T06:32:54.781Z,1.60
2023-04-12T06:35:22.434Z,1.20
2023-04-12T06:37:49.972Z,1.07
2023-04-12T06:40:17.585Z,1.43
2023-04-12T06:42:45.056Z,1.00
2023-04-12T06:45:12.703Z,1.20
2023-04-12T06:47:40.244Z,1.90
2023-04-12T06:50:10.084Z,1.10
2023-04-12T06:52:37.623Z,1.30
2023-04-12T06:55:05.993Z,1.10
2023-04-12T06:57:33.490Z,1.17
2023-04-12T07:00:01.374Z,1.33
2023-04-12T07:02:28.869Z,0.90
2023-04-12T07:04:56.373Z,1.00
2023-04-12T07:07:25.210Z,1.23
2023-04-12T07:09:53.196Z,1.00
2023-04-12T07:12:20.835Z,1.10
2023-04-12T07:14:48.283Z,1.23
2023-04-12T07:17:15.755Z,0.90
2023-04-12T07:19:44.379Z,1.53
2023-04-12T07:22:13.682Z,0.90
2023-04-12T07:24:42.969Z,1.47
2023-04-12T07:27:11.039Z,1.30
2023-04-12T07:29:38.574Z,1.10
2023-04-12T07:32:06.579Z,1.07
2023-04-12T07:34:34.076Z,1.20
2023-04-12T07:37:01.760Z,1.27
2023-04-12T07:39:30.116Z,1.10
2023-04-12T07:41:58.901Z,1.10
2023-04-12T07:44:26.369Z,1.23
2023-04-12T07:46:53.805Z,1.13
2023-04-12T07:49:21.330Z,1.00
2023-04-12T07:51:48.793Z,1.53
2023-04-12T07:54:16.514Z,1.20
2023-04-12T07:57:00.551Z,1.47
2023-04-12T07:59:27.997Z,1.50
2023-04-12T08:01:55.623Z,1.50
2023-04-12T08:04:23.306Z,1.50
2023-04-12T08:06:50.904Z,1.40
2023-04-12T08:09:18.420Z,1.30
2023-04-12T08:11:47.214Z,1.10
2023-04-12T08:14:16.130Z,1.10
2023-04-12T08:16:43.606Z,1.73
2023-04-12T08:19:11.804Z,1.57
2023-04-12T08:21:39.291Z,1.43
2023-04-12T08:24:07.466Z,1.23
2023-04-12T08:26:34.881Z,1.43
2023-04-12T08:29:03.212Z,1.37
2023-04-12T08:31:32.117Z,1.33
2023-04-12T08:33:59.983Z,1.23
2023-04-12T08:36:28.155Z,1.23
2023-04-12T08:38:59.499Z,0.97
2023-04-12T08:41:27.332Z,1.10
2023-04-12T08:43:55.420Z,1.20
2023-04-12T08:46:23.608Z,1.23
2023-04-12T08:48:54.515Z,1.30
2023-04-12T08:51:22.814Z,1.90
2023-04-12T08:53:51.003Z,2.07
2023-04-12T08:56:18.521Z,1.27
2023-04-12T08:58:48.809Z,1.50
2023-04-12T09:01:17.371Z,1.73
2023-04-12T09:03:45.956Z,1.87
2023-04-12T09:06:15.574Z,1.80
2023-04-12T09:08:53.822Z,1.93
2023-04-12T09:11:25.610Z,2.37
2023-04-12T09:13:53.338Z,1.67
2023-04-12T09:16:35.427Z,2.17
2023-04-12T09:19:03.513Z,1.83
2023-04-12T09:21:34.527Z,2.27
2023-04-12T09:24:11.663Z,3.00
2023-04-12T09:26:41.210Z,2.53
2023-04-12T09:29:23.304Z,2.17
2023-04-12T09:31:56.947Z,2.40
2023-04-12T09:34:25.954Z,2.20
2023-04-12T09:36:56.868Z,1.83
2023-04-12T09:39:32.922Z,2.03
2023-04-12T09:42:14.870Z,2.30
2023-04-12T09:44:52.965Z,2.27
2023-04-12T09:47:20.521Z,1.57
2023-04-12T09:49:48.010Z,2.27
2023-04-12T09:52:16.967Z,2.20
2023-04-12T09:54:46.175Z,2.00
2023-04-12T09:57:14.249Z,2.07
2023-04-12T09:59:42.882Z,2.40
2023-04-12T10:02:15.109Z,2.20
2023-04-12T10:04:43.216Z,2.47
2023-04-12T10:07:11.844Z,2.23
2023-04-12T10:09:42.176Z,2.30
2023-04-12T10:12:11.090Z,2.47
2023-04-12T10:14:39.044Z,2.60
2023-04-12T10:17:06.751Z,2.30
2023-04-12T10:19:34.447Z,2.43
2023-04-12T10:22:02.772Z,2.30
2023-04-12T10:24:31.454Z,3.20
2023-04-12T10:27:03.184Z,2.50
2023-04-12T10:29:33.573Z,3.70
2023-04-12T10:32:20.777Z,2.60
2023-04-12T10:34:51.963Z,2.90
2023-04-12T10:37:19.506Z,3.03
2023-04-12T10:39:53.213Z,3.40
2023-04-12T10:42:23.954Z,2.77
2023-04-12T10:44:52.939Z,3.20
2023-04-12T10:48:01.697Z,2.90
2023-04-12T10:50:30.410Z,4.40
2023-04-12T10:53:24.906Z,3.00
2023-04-12T10:55:53.044Z,3.33
2023-04-12T10:58:59.762Z,3.37
2023-04-12T11:01:28.405Z,3.37
2023-04-12T11:04:16.869Z,3.13
2023-04-12T11:06:59.029Z,4.20
2023-04-12T11:09:28.073Z,3.90
2023-04-12T11:12:03.566Z,4.10
2023-04-12T11:14:38.707Z,5.03
2023-04-12T11:17:25.931Z,4.87
2023-04-12T11:19:58.410Z,4.07
2023-04-12T11:22:28.873Z,4.20
2023-04-12T11:24:58.007Z,3.77
2023-04-12T11:27:27.747Z,3.70
2023-04-12T11:29:58.093Z,3.83
2023-04-12T11:32:27.498Z,4.53
2023-04-12T11:34:56.800Z,4.20
2023-04-12T11:37:26.645Z,3.97
2023-04-12T11:39:56.361Z,4.20
2023-04-12T11:42:25.018Z,3.77
2023-04-12T11:44:58.977Z,3.90
2023-04-12T11:47:30.727Z,4.33
2023-04-12T11:49:59.892Z,3.83
2023-04-12T11:52:29.691Z,3.83
2023-04-12T11:54:58.834Z,4.40
2023-04-12T11:57:26.364Z,5.00
2023-04-12T11:59:53.858Z,3.80
2023-04-12T12:02:24.104Z,3.90
2023-04-12T12:04:56.106Z,3.67
2023-04-12T12:07:25.107Z,3.70
2023-04-12T12:09:52.790Z,4.70
2023-04-12T12:12:20.261Z,4.00
2023-04-12T12:14:48.248Z,3.60
2023-04-12T12:17:17.050Z,4.60
2023-04-12T12:19:45.809Z,3.70
2023-04-12T12:22:16.784Z,3.30
2023-04-12T12:24:48.578Z,3.63
2023-04-12T12:27:19.627Z,3.20
2023-04-12T12:29:50.357Z,3.13
2023-04-12T12:32:19.772Z,3.43
2023-04-12T12:34:55.090Z,3.70
2023-04-12T12:37:26.805Z,3.57
2023-04-12T12:40:13.732Z,2.97
2023-04-12T12:42:48.584Z,3.33
2023-04-12T12:45:17.852Z,3.10
2023-04-12T12:47:51.604Z,2.50
2023-04-12T12:50:21.073Z,3.37
2023-04-12T12:52:52.029Z,3.10
2023-04-12T12:55:21.131Z,2.50
2023-04-12T12:58:06.138Z,2.60
2023-04-12T13:00:34.785Z,3.27
2023-04-12T13:03:03.033Z,2.17
2023-04-12T13:05:30.996Z,2.33
2023-04-12T13:07:59.849Z,2.40
2023-04-12T13:10:27.431Z,1.90
2023-04-12T13:12:54.872Z,1.77
2023-04-12T13:15:24.265Z,1.60
2023-04-12T13:17:53.095Z,1.80
2023-04-12T13:20:20.975Z,2.13
2023-04-12T13:22:48.604Z,2.03
2023-04-12T13:25:19.691Z,2.00
2023-04-12T13:27:48.389Z,2.10
2023-04-12T13:30:16.042Z,2.20
2023-04-12T13:32:44.525Z,2.93
2023-04-12T13:35:12.162Z,3.23
2023-04-12T13:37:39.919Z,3.50
2023-04-12T13:40:08.545Z,2.63
2023-04-12T13:42:37.403Z,2.80
2023-04-12T13:45:05.436Z,2.50
2023-04-12T13:47:33.696Z,2.23
2023-04-12T13:50:01.549Z,2.37
2023-04-12T13:52:29.057Z,2.20
2023-04-12T13:54:58.549Z,2.10
2023-04-12T13:57:26.092Z,2.00
2023-04-12T13:59:54.945Z,1.90
2023-04-12T14:02:22.509Z,2.30
2023-04-12T14:04:52.522Z,1.50
2023-04-12T14:07:20.480Z,1.50
2023-04-12T14:09:48.767Z,1.80
2023-04-12T14:12:16.344Z,1.53
2023-04-12T14:14:43.848Z,1.67
2023-04-12T14:17:12.723Z,1.40
2023-04-12T14:19:40.273Z,1.77
2023-04-12T14:22:07.741Z,1.50
2023-04-12T14:24:35.783Z,1.60
2023-04-12T14:27:04.447Z,1.80
2023-04-12T14:29:31.949Z,1.70
2023-04-12T14:31:59.489Z,1.43
2023-04-12T14:34:28.537Z,1.50
2023-04-12T14:36:56.261Z,1.00
2023-04-12T14:39:24.447Z,1.60
2023-04-12T14:41:51.914Z,1.30
2023-04-12T14:44:20.750Z,1.37
2023-04-12T14:46:48.992Z,1.57
2023-04-12T14:49:16.510Z,2.20
2023-04-12T14:51:45.748Z,1.30
2023-04-12T14:54:13.264Z,1.40
2023-04-12T14:56:47.800Z,1.60
2023-04-12T14:59:18.881Z,1.13
2023-04-12T15:01:46.502Z,1.70
2023-04-12T15:04:14.124Z,1.30
2023-04-12T15:06:44.701Z,1.47
2023-04-12T15:09:15.580Z,1.20
2023-04-12T15:11:46.167Z,0.90
2023-04-12T15:14:17.688Z,0.97
2023-04-12T15:16:46.305Z,0.90
2023-04-12T15:19:19.996Z,0.90
2023-04-12T15:21:51.003Z,0.77
2023-04-12T15:24:19.909Z,0.97
2023-04-12T15:26:48.582Z,0.60
2023-04-12T15:29:16.827Z,0.80
2023-04-12T15:31:44.452Z,0.93
2023-04-12T15:34:13.264Z,0.70
2023-04-12T15:36:42.975Z,0.80
2023-04-12T15:39:10.787Z,0.53
2023-04-12T15:41:40.617Z,0.53
2023-04-12T15:44:09.472Z,0.80
2023-04-12T15:46:36.971Z,0.60
2023-04-12T15:49:05.415Z,0.70
2023-04-12T15:51:33.329Z,0.50
2023-04-12T15:54:01.002Z,0.53
2023-04-12T15:56:29.727Z,0.60
2023-04-12T15:58:59.037Z,0.80
2023-04-12T16:01:26.678Z,0.50
2023-04-12T16:03:55.578Z,0.50
2023-04-12T16:06:25.110Z,0.50
2023-04-12T16:08:54.392Z,0.40
2023-04-12T16:11:23.120Z,0.57
2023-04-12T16:13:51.507Z,0.50
2023-04-12T16:16:22.865Z,0.40
2023-04-12T16:18:52.957Z,0.60
2023-04-12T16:21:22.193Z,0.80
2023-04-12T16:23:51.246Z,0.50
2023-04-12T16:26:21.537Z,0.70
2023-04-12T16:28:49.127Z,0.50
2023-04-12T16:31:16.676Z,0.40
2023-04-12T16:33:45.550Z,0.40
2023-04-12T16:36:13.694Z,0.60
2023-04-12T16:38:41.172Z,0.57
2023-04-12T16:41:08.669Z,0.70
2023-04-12T16:43:36.241Z,0.90
2023-04-12T16:46:05.804Z,0.70
2023-04-12T16:48:33.804Z,0.80
2023-04-12T16:51:03.454Z,0.50
2023-04-12T16:53:30.996Z,0.50
2023-04-12T16:56:01.593Z,0.50
2023-04-12T16:58:29.210Z,0.50
2023-04-12T17:00:57.721Z,0.60
2023-04-12T17:03:25.722Z,0.40
2023-04-12T17:05:53.284Z,0.50
2023-04-12T17:08:22.609Z,0.50
2023-04-12T17:10:50.772Z,0.60
2023-04-12T17:13:20.203Z,0.50
2023-04-12T17:15:48.667Z,0.60
2023-04-12T17:18:16.304Z,0.60
2023-04-12T17:20:44.012Z,0.50
2023-04-12T17:23:11.786Z,0.50
2023-04-12T17:25:41.600Z,0.60
2023-04-12T17:28:09.451Z,0.63
2023-04-12T17:30:37.069Z,0.40
2023-04-12T17:33:07.184Z,0.60
2023-04-12T17:35:34.824Z,0.50
2023-04-12T17:38:02.327Z,0.60
2023-04-12T17:40:29.821Z,0.50
2023-04-12T17:42:58.602Z,0.50
2023-04-12T17:45:26.336Z,0.50
2023-04-12T17:47:54.562Z,0.63
2023-04-12T17:50:22.408Z,0.57
2023-04-12T17:52:49.880Z,0.50
2023-04-12T17:55:19.354Z,0.50
2023-04-12T17:57:46.815Z,0.53
2023-04-12T18:00:18.750Z,0.60
2023-04-12T18:02:46.795Z,0.70
2023-04-12T18:05:14.413Z,0.70
2023-04-12T18:07:42.451Z,0.50
2023-04-12T18:10:12.328Z,0.47
2023-04-12T18:12:40.795Z,0.53
2023-04-12T18:15:09.636Z,0.50
2023-04-12T18:17:39.556Z,0.40
2023-04-12T18:20:10.466Z,0.60
2023-04-12T18:22:38.124Z,0.80
2023-04-12T18:25:06.330Z,0.70
2023-04-12T18:27:33.778Z,0.60
2023-04-12T18:30:03.203Z,0.57
2023-04-12T18:32:30.886Z,0.67
2023-04-12T18:34:59.881Z,0.60
2023-04-12T18:37:27.943Z,0.73
2023-04-12T18:39:55.602Z,0.50
2023-04-12T18:42:23.142Z,0.50
2023-04-12T18:44:51.120Z,0.50
2023-04-12T18:47:18.758Z,0.80
2023-04-12T18:49:46.458Z,0.73
2023-04-12T18:52:15.650Z,0.50
2023-04-12T18:54:43.245Z,0.60
2023-04-12T18:57:10.748Z,0.73
2023-04-12T18:59:38.330Z,0.40
2023-04-12T19:02:05.986Z,0.60
2023-04-12T19:04:33.453Z,0.60
2023-04-12T19:07:01.008Z,0.50
2023-04-12T19:09:29.904Z,0.50
2023-04-12T19:11:57.407Z,0.60
2023-04-12T19:14:25.305Z,0.60
2023-04-12T19:16:53.032Z,0.87
2023-04-12T19:19:20.784Z,0.50
2023-04-12T19:21:48.336Z,0.80
2023-04-12T19:24:16.141Z,0.60
2023-04-12T19:26:47.249Z,0.60
2023-04-12T19:29:15.913Z,0.60
2023-04-12T19:31:47.126Z,0.60
2023-04-12T19:34:17.814Z,0.50
2023-04-12T19:36:45.718Z,0.50
2023-04-12T19:39:13.284Z,0.70
2023-04-12T19:41:40.969Z,0.40
2023-04-12T19:44:09.815Z,0.60
2023-04-12T19:46:38.746Z,0.50
2023-04-12T19:49:06.563Z,0.80
2023-04-12T19:51:34.532Z,0.67
2023-04-12T19:54:02.708Z,0.50
2023-04-12T19:56:31.382Z,0.60
2023-04-12T19:58:59.952Z,0.60
2023-04-12T20:01:29.121Z,0.70
2023-04-12T20:03:56.930Z,0.60
2023-04-12T20:06:26.359Z,0.50
2023-04-12T20:08:53.898Z,0.70
2023-04-12T20:11:21.636Z,0.50
2023-04-12T20:13:49.195Z,0.60
2023-04-12T20:16:17.394Z,0.60
2023-04-12T20:18:46.808Z,0.60
2023-04-12T20:21:14.273Z,0.50
2023-04-12T20:23:42.236Z,0.60
2023-04-12T20:26:09.827Z,0.80
2023-04-12T20:28:37.571Z,0.60
2023-04-12T20:31:05.969Z,0.70
2023-04-12T20:33:33.585Z,1.07
2023-04-12T20:36:03.282Z,0.80
2023-04-12T20:38:30.767Z,1.13
2023-04-12T20:40:58.516Z,1.17
2023-04-12T20:43:26.264Z,0.50
2023-04-12T20:45:53.857Z,2.00
2023-04-12T20:48:21.862Z,1.27
2023-04-12T20:50:50.333Z,0.80
2023-04-12T20:53:19.183Z,0.80
2023-04-12T20:55:46.651Z,0.70
2023-04-12T20:58:15.198Z,1.13
2023-04-12T21:00:42.698Z,0.80
2023-04-12T21:03:10.966Z,0.50
2023-04-12T21:05:38.651Z,0.80
2023-04-12T21:08:07.393Z,0.73
2023-04-12T21:10:36.182Z,0.73
2023-04-12T21:13:03.682Z,0.80
2023-04-12T21:15:35.328Z,0.80
2023-04-12T21:18:04.118Z,0.80
2023-04-12T21:20:31.831Z,0.67
2023-04-12T21:22:59.291Z,0.60
2023-04-12T21:25:26.785Z,0.53
2023-04-12T21:27:55.596Z,0.60
2023-04-12T21:30:23.057Z,0.70
2023-04-12T21:32:51.663Z,0.60
2023-04-12T21:35:20.940Z,0.60
2023-04-12T21:37:49.082Z,0.90
2023-04-12T21:40:17.080Z,0.60
2023-04-12T21:42:45.192Z,0.73
2023-04-12T21:45:14.284Z,0.60
2023-04-12T21:47:42.618Z,0.60
2023-04-12T21:50:11.180Z,0.60
2023-04-12T21:52:40.017Z,0.60
2023-04-12T21:55:08.031Z,0.70
2023-04-12T21:57:36.343Z,0.60
2023-04-12T22:00:05.223Z,1.33
2023-04-12T22:02:34.184Z,0.50
2023-04-12T22:05:01.768Z,0.57
2023-04-12T22:07:29.215Z,0.60
2023-04-12T22:09:58.349Z,0.77
2023-04-12T22:12:26.714Z,0.80
2023-04-12T22:14:54.470Z,0.80
2023-04-12T22:17:22.219Z,0.73
2023-04-12T22:19:53.126Z,0.50
2023-04-12T22:22:20.765Z,0.70
2023-04-12T22:24:48.271Z,0.90
2023-04-12T22:27:16.190Z,0.60
2023-04-12T22:29:43.705Z,0.50
2023-04-12T22:32:11.188Z,0.57
2023-04-12T22:34:39.157Z,0.60
2023-04-12T22:37:08.661Z,0.83
2023-04-12T22:39:36.490Z,0.60
2023-04-12T22:42:04.056Z,0.67
2023-04-12T22:44:38.360Z,0.60
2023-04-12T22:47:07.424Z,0.60
2023-04-12T22:49:46.162Z,0.80
2023-04-12T22:52:14.955Z,0.87
2023-04-12T22:54:42.427Z,0.77
2023-04-12T22:57:09.867Z,0.90
2023-04-12T22:59:37.370Z,0.90
2023-04-12T23:02:05.007Z,0.80
2023-04-12T23:04:32.888Z,0.90
2023-04-12T23:07:01.256Z,0.60
2023-04-12T23:09:30.085Z,0.90
2023-04-12T23:11:57.488Z,0.63
2023-04-12T23:14:24.928Z,0.70
2023-04-12T23:16:52.384Z,0.70
2023-04-12T23:19:20.246Z,0.60
2023-04-12T23:21:47.695Z,0.50
2023-04-12T23:24:16.426Z,0.63
2023-04-12T23:26:46.007Z,0.60
2023-04-12T23:29:13.616Z,0.60
2023-04-12T23:31:41.630Z,0.70
2023-04-12T23:34:09.107Z,0.60
2023-04-12T23:36:36.645Z,0.90
2023-04-12T23:39:08.609Z,0.70
2023-04-12T23:41:36.140Z,0.60
2023-04-12T23:44:05.058Z,0.50
2023-04-12T23:46:32.701Z,0.60
2023-04-12T23:49:00.180Z,0.60
2023-04-12T23:51:28.081Z,0.60
2023-04-12T23:53:55.529Z,0.57
2023-04-12T23:56:23.008Z,0.60
2023-04-12T23:58:50.480Z,0.67
